sensor_id;sensor_type;location;lat;lon;timestamp;P1;durP1;ratioP1;P2;durP2;ratioP2
11506;SDS011;5810;51.180;6.646;2023-07-08T00:01:38;1.55;;;1.45;;
11506;SDS011;5810;51.180;6.646;2023-07-08T00:04:04;1.00;;;0.98;;
11506;SDS011;5810;51.180;6.646;2023-07-08T00:06:32;2.72;;;1.25;;
11506;SDS011;5810;51.180;6.646;2023-07-08T00:08:58;1.88;;;1.23;;
11506;SDS011;5810;51.180;6.646;2023-07-08T00:11:24;1.42;;;1.08;;
11506;SDS011;5810;51.180;6.646;2023-07-08T00:13:50;1.30;;;1.20;;
11506;SDS011;5810;51.180;6.646;2023-07-08T00:16:17;1.10;;;1.05;;
11506;SDS011;5810;51.180;6.646;2023-07-08T00:18:43;3.35;;;1.05;;
11506;SDS011;5810;51.180;6.646;2023-07-08T00:21:10;1.48;;;1.38;;
11506;SDS011;5810;51.180;6.646;2023-07-08T00:23:39;1.73;;;1.63;;
11506;SDS011;5810;51.180;6.646;2023-07-08T00:26:13;1.52;;;1.42;;
11506;SDS011;5810;51.180;6.646;2023-07-08T00:28:41;1.40;;;1.30;;
11506;SDS011;5810;51.180;6.646;2023-07-08T00:31:08;1.23;;;1.15;;
11506;SDS011;5810;51.180;6.646;2023-07-08T00:33:35;1.38;;;1.27;;
11506;SDS011;5810;51.180;6.646;2023-07-08T00:36:01;1.25;;;1.20;;
11506;SDS011;5810;51.180;6.646;2023-07-08T00:38:27;1.85;;;1.63;;
11506;SDS011;5810;51.180;6.646;2023-07-08T00:43:24;1.35;;;1.27;;
11506;SDS011;5810;51.180;6.646;2023-07-08T00:45:53;1.35;;;1.25;;
11506;SDS011;5810;51.180;6.646;2023-07-08T00:48:32;1.30;;;1.20;;
11506;SDS011;5810;51.180;6.646;2023-07-08T00:51:00;0.90;;;0.90;;
11506;SDS011;5810;51.180;6.646;2023-07-08T00:53:33;1.13;;;1.13;;
11506;SDS011;5810;51.180;6.646;2023-07-08T00:56:00;1.10;;;1.10;;
11506;SDS011;5810;51.180;6.646;2023-07-08T00:59:11;1.20;;;1.10;;
11506;SDS011;5810;51.180;6.646;2023-07-08T01:01:18;1.48;;;1.23;;
11506;SDS011;5810;51.180;6.646;2023-07-08T01:03:46;1.25;;;1.17;;
11506;SDS011;5810;51.180;6.646;2023-07-08T01:06:14;1.98;;;1.35;;
11506;SDS011;5810;51.180;6.646;2023-07-08T01:08:40;1.05;;;1.05;;
11506;SDS011;5810;51.180;6.646;2023-07-08T01:11:06;0.90;;;0.90;;
11506;SDS011;5810;51.180;6.646;2023-07-08T01:13:34;1.50;;;1.15;;
11506;SDS011;5810;51.180;6.646;2023-07-08T01:16:01;1.30;;;1.20;;
11506;SDS011;5810;51.180;6.646;2023-07-08T01:18:28;1.17;;;1.17;;
11506;SDS011;5810;51.180;6.646;2023-07-08T01:20:54;0.88;;;0.88;;
11506;SDS011;5810;51.180;6.646;2023-07-08T01:23:20;1.42;;;1.33;;
11506;SDS011;5810;51.180;6.646;2023-07-08T01:25:46;0.80;;;0.80;;
11506;SDS011;5810;51.180;6.646;2023-07-08T01:28:13;1.25;;;1.15;;
11506;SDS011;5810;51.180;6.646;2023-07-08T01:30:40;1.55;;;1.45;;
11506;SDS011;5810;51.180;6.646;2023-07-08T01:33:11;1.88;;;1.05;;
11506;SDS011;5810;51.180;6.646;2023-07-08T01:35:38;1.17;;;1.17;;
11506;SDS011;5810;51.180;6.646;2023-07-08T01:38:05;1.67;;;1.38;;
11506;SDS011;5810;51.180;6.646;2023-07-08T01:40:32;1.17;;;1.10;;
11506;SDS011;5810;51.180;6.646;2023-07-08T01:42:59;0.95;;;0.93;;
11506;SDS011;5810;51.180;6.646;2023-07-08T01:45:26;2.05;;;1.25;;
11506;SDS011;5810;51.180;6.646;2023-07-08T01:47:59;1.77;;;1.67;;
11506;SDS011;5810;51.180;6.646;2023-07-08T01:50:26;0.90;;;0.90;;
11506;SDS011;5810;51.180;6.646;2023-07-08T01:52:53;1.58;;;1.48;;
11506;SDS011;5810;51.180;6.646;2023-07-08T01:55:21;2.10;;;1.30;;
11506;SDS011;5810;51.180;6.646;2023-07-08T01:57:48;1.50;;;1.40;;
11506;SDS011;5810;51.180;6.646;2023-07-08T02:00:16;1.95;;;1.30;;
11506;SDS011;5810;51.180;6.646;2023-07-08T02:02:42;1.60;;;1.23;;
11506;SDS011;5810;51.180;6.646;2023-07-08T02:05:08;1.50;;;1.40;;
11506;SDS011;5810;51.180;6.646;2023-07-08T02:07:34;1.40;;;1.08;;
11506;SDS011;5810;51.180;6.646;2023-07-08T02:10:00;1.35;;;1.23;;
11506;SDS011;5810;51.180;6.646;2023-07-08T02:12:26;1.02;;;1.02;;
11506;SDS011;5810;51.180;6.646;2023-07-08T02:14:52;1.95;;;1.85;;
11506;SDS011;5810;51.180;6.646;2023-07-08T02:17:17;1.58;;;1.10;;
11506;SDS011;5810;51.180;6.646;2023-07-08T02:19:43;1.88;;;1.77;;
11506;SDS011;5810;51.180;6.646;2023-07-08T02:22:09;3.40;;;2.03;;
11506;SDS011;5810;51.180;6.646;2023-07-08T02:24:36;1.27;;;1.20;;
11506;SDS011;5810;51.180;6.646;2023-07-08T02:27:02;1.60;;;1.50;;
11506;SDS011;5810;51.180;6.646;2023-07-08T02:29:28;2.17;;;1.27;;
11506;SDS011;5810;51.180;6.646;2023-07-08T02:31:56;0.95;;;0.95;;
11506;SDS011;5810;51.180;6.646;2023-07-08T02:34:22;1.00;;;1.00;;
11506;SDS011;5810;51.180;6.646;2023-07-08T02:36:48;0.77;;;0.77;;
11506;SDS011;5810;51.180;6.646;2023-07-08T02:39:14;1.35;;;1.05;;
11506;SDS011;5810;51.180;6.646;2023-07-08T02:41:40;1.00;;;0.90;;
11506;SDS011;5810;51.180;6.646;2023-07-08T02:44:06;1.25;;;1.17;;
11506;SDS011;5810;51.180;6.646;2023-07-08T02:46:32;1.45;;;1.35;;
11506;SDS011;5810;51.180;6.646;2023-07-08T02:48:58;0.82;;;0.82;;
11506;SDS011;5810;51.180;6.646;2023-07-08T02:51:24;0.93;;;0.93;;
11506;SDS011;5810;51.180;6.646;2023-07-08T02:53:50;1.00;;;1.00;;
11506;SDS011;5810;51.180;6.646;2023-07-08T02:56:16;0.98;;;0.98;;
11506;SDS011;5810;51.180;6.646;2023-07-08T02:58:42;1.13;;;1.13;;
11506;SDS011;5810;51.180;6.646;2023-07-08T03:01:08;1.02;;;1.02;;
11506;SDS011;5810;51.180;6.646;2023-07-08T03:03:35;1.05;;;1.05;;
11506;SDS011;5810;51.180;6.646;2023-07-08T03:06:01;2.83;;;1.40;;
11506;SDS011;5810;51.180;6.646;2023-07-08T03:08:28;0.98;;;0.98;;
11506;SDS011;5810;51.180;6.646;2023-07-08T03:10:58;0.75;;;0.75;;
11506;SDS011;5810;51.180;6.646;2023-07-08T03:13:24;6.38;;;2.03;;
11506;SDS011;5810;51.180;6.646;2023-07-08T03:15:51;2.10;;;1.98;;
11506;SDS011;5810;51.180;6.646;2023-07-08T03:18:17;1.45;;;1.35;;
11506;SDS011;5810;51.180;6.646;2023-07-08T03:20:43;5.60;;;1.00;;
11506;SDS011;5810;51.180;6.646;2023-07-08T03:23:10;1.42;;;1.33;;
11506;SDS011;5810;51.180;6.646;2023-07-08T03:25:36;1.00;;;1.00;;
11506;SDS011;5810;51.180;6.646;2023-07-08T03:28:03;0.93;;;0.93;;
11506;SDS011;5810;51.180;6.646;2023-07-08T03:30:31;0.93;;;0.93;;
11506;SDS011;5810;51.180;6.646;2023-07-08T03:32:57;0.90;;;0.90;;
11506;SDS011;5810;51.180;6.646;2023-07-08T03:35:23;1.38;;;1.25;;
11506;SDS011;5810;51.180;6.646;2023-07-08T03:37:49;0.98;;;0.98;;
11506;SDS011;5810;51.180;6.646;2023-07-08T03:40:16;1.25;;;0.98;;
11506;SDS011;5810;51.180;6.646;2023-07-08T03:42:42;4.18;;;1.38;;
11506;SDS011;5810;51.180;6.646;2023-07-08T03:45:08;0.75;;;0.75;;
11506;SDS011;5810;51.180;6.646;2023-07-08T03:47:34;0.85;;;0.85;;
11506;SDS011;5810;51.180;6.646;2023-07-08T03:50:00;1.02;;;1.02;;
11506;SDS011;5810;51.180;6.646;2023-07-08T03:52:26;1.65;;;1.10;;
11506;SDS011;5810;51.180;6.646;2023-07-08T03:54:52;1.75;;;1.05;;
11506;SDS011;5810;51.180;6.646;2023-07-08T03:57:18;1.40;;;1.33;;
11506;SDS011;5810;51.180;6.646;2023-07-08T03:59:44;1.45;;;1.38;;
11506;SDS011;5810;51.180;6.646;2023-07-08T04:02:11;1.80;;;1.70;;
11506;SDS011;5810;51.180;6.646;2023-07-08T04:04:37;1.23;;;1.20;;
11506;SDS011;5810;51.180;6.646;2023-07-08T04:07:04;0.90;;;0.90;;
11506;SDS011;5810;51.180;6.646;2023-07-08T04:09:30;0.93;;;0.93;;
11506;SDS011;5810;51.180;6.646;2023-07-08T04:11:56;1.85;;;1.10;;
11506;SDS011;5810;51.180;6.646;2023-07-08T04:14:23;0.93;;;0.93;;
11506;SDS011;5810;51.180;6.646;2023-07-08T04:19:16;1.30;;;1.23;;
11506;SDS011;5810;51.180;6.646;2023-07-08T04:21:42;0.77;;;0.77;;
11506;SDS011;5810;51.180;6.646;2023-07-08T04:24:13;1.10;;;1.00;;
11506;SDS011;5810;51.180;6.646;2023-07-08T04:26:39;1.08;;;1.08;;
11506;SDS011;5810;51.180;6.646;2023-07-08T04:29:09;1.90;;;1.48;;
11506;SDS011;5810;51.180;6.646;2023-07-08T04:31:36;1.20;;;1.10;;
11506;SDS011;5810;51.180;6.646;2023-07-08T04:34:02;1.25;;;1.13;;
11506;SDS011;5810;51.180;6.646;2023-07-08T04:36:28;1.08;;;1.08;;
11506;SDS011;5810;51.180;6.646;2023-07-08T04:38:54;0.90;;;0.90;;
11506;SDS011;5810;51.180;6.646;2023-07-08T04:41:22;0.90;;;0.90;;
11506;SDS011;5810;51.180;6.646;2023-07-08T04:43:50;1.08;;;1.08;;
11506;SDS011;5810;51.180;6.646;2023-07-08T04:49:07;1.13;;;1.10;;
11506;SDS011;5810;51.180;6.646;2023-07-08T04:51:34;1.42;;;1.30;;
11506;SDS011;5810;51.180;6.646;2023-07-08T04:54:00;0.93;;;0.93;;
11506;SDS011;5810;51.180;6.646;2023-07-08T04:56:48;1.05;;;0.93;;
11506;SDS011;5810;51.180;6.646;2023-07-08T04:59:15;3.92;;;1.52;;
11506;SDS011;5810;51.180;6.646;2023-07-08T05:01:41;1.35;;;1.25;;
11506;SDS011;5810;51.180;6.646;2023-07-08T05:04:09;1.08;;;1.08;;
11506;SDS011;5810;51.180;6.646;2023-07-08T05:06:35;3.55;;;1.25;;
11506;SDS011;5810;51.180;6.646;2023-07-08T05:09:02;1.20;;;1.10;;
11506;SDS011;5810;51.180;6.646;2023-07-08T05:11:28;1.30;;;1.25;;
11506;SDS011;5810;51.180;6.646;2023-07-08T05:13:54;0.95;;;0.88;;
11506;SDS011;5810;51.180;6.646;2023-07-08T05:16:20;2.33;;;1.58;;
11506;SDS011;5810;51.180;6.646;2023-07-08T05:18:46;1.48;;;1.38;;
11506;SDS011;5810;51.180;6.646;2023-07-08T05:21:12;1.38;;;1.20;;
11506;SDS011;5810;51.180;6.646;2023-07-08T05:23:39;1.00;;;1.00;;
11506;SDS011;5810;51.180;6.646;2023-07-08T05:26:05;4.22;;;1.58;;
11506;SDS011;5810;51.180;6.646;2023-07-08T05:28:32;2.10;;;1.98;;
11506;SDS011;5810;51.180;6.646;2023-07-08T05:30:58;2.80;;;1.40;;
11506;SDS011;5810;51.180;6.646;2023-07-08T05:33:25;2.13;;;1.38;;
11506;SDS011;5810;51.180;6.646;2023-07-08T05:35:51;0.98;;;0.98;;
11506;SDS011;5810;51.180;6.646;2023-07-08T05:38:17;1.98;;;1.67;;
11506;SDS011;5810;51.180;6.646;2023-07-08T05:40:47;1.88;;;1.77;;
11506;SDS011;5810;51.180;6.646;2023-07-08T05:43:15;1.90;;;1.80;;
11506;SDS011;5810;51.180;6.646;2023-07-08T05:45:41;1.67;;;1.20;;
11506;SDS011;5810;51.180;6.646;2023-07-08T05:48:07;2.47;;;1.10;;
11506;SDS011;5810;51.180;6.646;2023-07-08T05:50:33;2.33;;;1.80;;
11506;SDS011;5810;51.180;6.646;2023-07-08T05:52:59;1.63;;;1.52;;
11506;SDS011;5810;51.180;6.646;2023-07-08T05:55:25;1.85;;;1.67;;
11506;SDS011;5810;51.180;6.646;2023-07-08T05:57:51;3.20;;;1.83;;
11506;SDS011;5810;51.180;6.646;2023-07-08T06:00:17;1.17;;;1.17;;
11506;SDS011;5810;51.180;6.646;2023-07-08T06:02:43;2.10;;;2.00;;
11506;SDS011;5810;51.180;6.646;2023-07-08T06:05:09;1.13;;;1.10;;
11506;SDS011;5810;51.180;6.646;2023-07-08T06:07:35;1.20;;;1.05;;
11506;SDS011;5810;51.180;6.646;2023-07-08T06:10:01;1.60;;;1.50;;
11506;SDS011;5810;51.180;6.646;2023-07-08T06:12:27;1.75;;;1.17;;
11506;SDS011;5810;51.180;6.646;2023-07-08T06:14:55;1.00;;;1.00;;
11506;SDS011;5810;51.180;6.646;2023-07-08T06:17:21;2.05;;;1.60;;
11506;SDS011;5810;51.180;6.646;2023-07-08T06:19:47;0.85;;;0.85;;
11506;SDS011;5810;51.180;6.646;2023-07-08T06:22:13;1.52;;;1.42;;
11506;SDS011;5810;51.180;6.646;2023-07-08T06:24:39;1.02;;;1.02;;
11506;SDS011;5810;51.180;6.646;2023-07-08T06:27:05;2.50;;;2.08;;
11506;SDS011;5810;51.180;6.646;2023-07-08T06:29:32;1.00;;;1.00;;
11506;SDS011;5810;51.180;6.646;2023-07-08T06:31:59;3.90;;;2.03;;
11506;SDS011;5810;51.180;6.646;2023-07-08T06:34:24;1.77;;;1.67;;
11506;SDS011;5810;51.180;6.646;2023-07-08T06:36:50;4.75;;;1.33;;
11506;SDS011;5810;51.180;6.646;2023-07-08T06:39:17;1.00;;;1.00;;
11506;SDS011;5810;51.180;6.646;2023-07-08T06:41:43;1.50;;;1.40;;
11506;SDS011;5810;51.180;6.646;2023-07-08T06:44:09;1.45;;;1.23;;
11506;SDS011;5810;51.180;6.646;2023-07-08T06:46:35;1.67;;;1.58;;
11506;SDS011;5810;51.180;6.646;2023-07-08T06:49:01;2.63;;;1.33;;
11506;SDS011;5810;51.180;6.646;2023-07-08T06:51:27;0.90;;;0.90;;
11506;SDS011;5810;51.180;6.646;2023-07-08T06:53:53;12.27;;;0.95;;
11506;SDS011;5810;51.180;6.646;2023-07-08T06:56:19;1.10;;;1.08;;
11506;SDS011;5810;51.180;6.646;2023-07-08T06:58:45;1.42;;;1.33;;
11506;SDS011;5810;51.180;6.646;2023-07-08T07:01:12;1.48;;;1.38;;
11506;SDS011;5810;51.180;6.646;2023-07-08T07:03:39;1.33;;;1.30;;
11506;SDS011;5810;51.180;6.646;2023-07-08T07:06:05;1.33;;;1.23;;
11506;SDS011;5810;51.180;6.646;2023-07-08T07:08:31;2.00;;;1.75;;
11506;SDS011;5810;51.180;6.646;2023-07-08T07:10:57;1.67;;;1.58;;
11506;SDS011;5810;51.180;6.646;2023-07-08T07:13:23;1.55;;;1.45;;
11506;SDS011;5810;51.180;6.646;2023-07-08T07:15:49;2.47;;;2.28;;
11506;SDS011;5810;51.180;6.646;2023-07-08T07:18:15;1.52;;;1.27;;
11506;SDS011;5810;51.180;6.646;2023-07-08T07:20:46;1.60;;;1.50;;
11506;SDS011;5810;51.180;6.646;2023-07-08T07:23:14;1.35;;;1.27;;
11506;SDS011;5810;51.180;6.646;2023-07-08T07:25:40;1.67;;;1.35;;
11506;SDS011;5810;51.180;6.646;2023-07-08T07:28:06;2.22;;;1.95;;
11506;SDS011;5810;51.180;6.646;2023-07-08T07:30:32;2.05;;;1.70;;
11506;SDS011;5810;51.180;6.646;2023-07-08T07:32:59;14.73;;;1.80;;
11506;SDS011;5810;51.180;6.646;2023-07-08T07:35:25;4.38;;;1.83;;
11506;SDS011;5810;51.180;6.646;2023-07-08T07:37:51;1.92;;;1.58;;
11506;SDS011;5810;51.180;6.646;2023-07-08T07:40:17;1.92;;;1.50;;
11506;SDS011;5810;51.180;6.646;2023-07-08T07:42:44;1.85;;;1.50;;
11506;SDS011;5810;51.180;6.646;2023-07-08T07:45:10;2.38;;;1.70;;
11506;SDS011;5810;51.180;6.646;2023-07-08T07:47:37;2.88;;;2.08;;
11506;SDS011;5810;51.180;6.646;2023-07-08T07:50:03;6.57;;;1.35;;
11506;SDS011;5810;51.180;6.646;2023-07-08T07:52:29;1.75;;;1.65;;
11506;SDS011;5810;51.180;6.646;2023-07-08T07:54:56;5.03;;;1.90;;
11506;SDS011;5810;51.180;6.646;2023-07-08T07:57:22;3.00;;;1.92;;
11506;SDS011;5810;51.180;6.646;2023-07-08T07:59:48;1.55;;;1.45;;
11506;SDS011;5810;51.180;6.646;2023-07-08T08:02:15;1.90;;;1.80;;
11506;SDS011;5810;51.180;6.646;2023-07-08T08:04:41;4.47;;;1.98;;
11506;SDS011;5810;51.180;6.646;2023-07-08T08:07:07;3.30;;;2.13;;
11506;SDS011;5810;51.180;6.646;2023-07-08T08:09:33;1.70;;;1.60;;
11506;SDS011;5810;51.180;6.646;2023-07-08T08:12:01;3.83;;;2.67;;
11506;SDS011;5810;51.180;6.646;2023-07-08T08:14:27;1.60;;;1.50;;
11506;SDS011;5810;51.180;6.646;2023-07-08T08:16:53;1.70;;;1.58;;
11506;SDS011;5810;51.180;6.646;2023-07-08T08:19:19;1.88;;;1.65;;
11506;SDS011;5810;51.180;6.646;2023-07-08T08:21:45;1.40;;;1.30;;
11506;SDS011;5810;51.180;6.646;2023-07-08T08:24:11;1.98;;;1.77;;
11506;SDS011;5810;51.180;6.646;2023-07-08T08:26:37;2.58;;;2.35;;
11506;SDS011;5810;51.180;6.646;2023-07-08T08:29:03;2.70;;;1.75;;
11506;SDS011;5810;51.180;6.646;2023-07-08T08:31:29;2.17;;;1.77;;
11506;SDS011;5810;51.180;6.646;2023-07-08T08:33:56;1.92;;;1.83;;
11506;SDS011;5810;51.180;6.646;2023-07-08T08:36:22;2.10;;;1.90;;
11506;SDS011;5810;51.180;6.646;2023-07-08T08:38:48;1.50;;;1.45;;
11506;SDS011;5810;51.180;6.646;2023-07-08T08:41:19;4.82;;;2.05;;
11506;SDS011;5810;51.180;6.646;2023-07-08T08:43:46;2.88;;;1.90;;
11506;SDS011;5810;51.180;6.646;2023-07-08T08:46:20;1.70;;;1.60;;
11506;SDS011;5810;51.180;6.646;2023-07-08T08:48:53;4.45;;;2.30;;
11506;SDS011;5810;51.180;6.646;2023-07-08T08:51:20;4.32;;;2.05;;
11506;SDS011;5810;51.180;6.646;2023-07-08T08:53:46;2.65;;;1.92;;
11506;SDS011;5810;51.180;6.646;2023-07-08T08:56:19;2.35;;;1.75;;
11506;SDS011;5810;51.180;6.646;2023-07-08T08:58:53;1.60;;;1.50;;
11506;SDS011;5810;51.180;6.646;2023-07-08T09:01:20;3.47;;;2.05;;
11506;SDS011;5810;51.180;6.646;2023-07-08T09:03:54;1.80;;;1.70;;
11506;SDS011;5810;51.180;6.646;2023-07-08T09:06:23;2.08;;;1.85;;
11506;SDS011;5810;51.180;6.646;2023-07-08T09:08:50;1.73;;;1.58;;
11506;SDS011;5810;51.180;6.646;2023-07-08T09:13:42;2.40;;;1.98;;
11506;SDS011;5810;51.180;6.646;2023-07-08T09:21:37;1.63;;;1.52;;
11506;SDS011;5810;51.180;6.646;2023-07-08T09:24:09;3.17;;;2.15;;
11506;SDS011;5810;51.180;6.646;2023-07-08T09:26:36;1.95;;;1.80;;
11506;SDS011;5810;51.180;6.646;2023-07-08T09:29:04;1.55;;;1.30;;
11506;SDS011;5810;51.180;6.646;2023-07-08T09:31:36;3.88;;;2.35;;
11506;SDS011;5810;51.180;6.646;2023-07-08T09:34:04;2.45;;;1.80;;
11506;SDS011;5810;51.180;6.646;2023-07-08T09:36:31;1.95;;;1.70;;
11506;SDS011;5810;51.180;6.646;2023-07-08T09:38:57;3.10;;;1.80;;
11506;SDS011;5810;51.180;6.646;2023-07-08T09:41:34;2.08;;;1.98;;
11506;SDS011;5810;51.180;6.646;2023-07-08T09:44:05;4.13;;;1.80;;
11506;SDS011;5810;51.180;6.646;2023-07-08T09:46:35;2.00;;;1.83;;
11506;SDS011;5810;51.180;6.646;2023-07-08T09:51:40;3.88;;;2.00;;
11506;SDS011;5810;51.180;6.646;2023-07-08T09:54:07;2.75;;;2.17;;
11506;SDS011;5810;51.180;6.646;2023-07-08T09:56:33;2.75;;;1.90;;
11506;SDS011;5810;51.180;6.646;2023-07-08T09:58:59;1.45;;;1.35;;
11506;SDS011;5810;51.180;6.646;2023-07-08T10:01:26;1.80;;;1.70;;
11506;SDS011;5810;51.180;6.646;2023-07-08T10:03:57;2.38;;;2.17;;
11506;SDS011;5810;51.180;6.646;2023-07-08T10:06:25;2.05;;;1.60;;
11506;SDS011;5810;51.180;6.646;2023-07-08T10:08:53;3.38;;;1.88;;
11506;SDS011;5810;51.180;6.646;2023-07-08T10:11:25;2.50;;;1.65;;
11506;SDS011;5810;51.180;6.646;2023-07-08T10:13:52;2.90;;;2.00;;
11506;SDS011;5810;51.180;6.646;2023-07-08T10:18:48;2.88;;;2.35;;
11506;SDS011;5810;51.180;6.646;2023-07-08T10:21:21;1.95;;;1.80;;
11506;SDS011;5810;51.180;6.646;2023-07-08T10:26:31;3.85;;;2.13;;
11506;SDS011;5810;51.180;6.646;2023-07-08T10:36:42;2.67;;;2.28;;
11506;SDS011;5810;51.180;6.646;2023-07-08T10:41:50;2.05;;;1.85;;
11506;SDS011;5810;51.180;6.646;2023-07-08T10:44:26;1.92;;;1.70;;
11506;SDS011;5810;51.180;6.646;2023-07-08T10:49:33;2.28;;;2.08;;
11506;SDS011;5810;51.180;6.646;2023-07-08T11:00:11;2.10;;;1.83;;
11506;SDS011;5810;51.180;6.646;2023-07-08T11:05:27;9.07;;;2.33;;
11506;SDS011;5810;51.180;6.646;2023-07-08T11:10:23;1.98;;;1.80;;
11506;SDS011;5810;51.180;6.646;2023-07-08T11:12:54;3.63;;;2.42;;
11506;SDS011;5810;51.180;6.646;2023-07-08T11:15:25;2.00;;;1.90;;
11506;SDS011;5810;51.180;6.646;2023-07-08T11:17:57;3.10;;;1.80;;
11506;SDS011;5810;51.180;6.646;2023-07-08T11:20:36;3.30;;;2.10;;
11506;SDS011;5810;51.180;6.646;2023-07-08T11:25:32;2.97;;;2.35;;
11506;SDS011;5810;51.180;6.646;2023-07-08T11:27:59;4.47;;;1.80;;
11506;SDS011;5810;51.180;6.646;2023-07-08T11:30:28;4.05;;;1.90;;
11506;SDS011;5810;51.180;6.646;2023-07-08T11:33:00;5.43;;;2.47;;
11506;SDS011;5810;51.180;6.646;2023-07-08T11:35:34;3.83;;;2.33;;
11506;SDS011;5810;51.180;6.646;2023-07-08T11:38:00;2.28;;;2.00;;
11506;SDS011;5810;51.180;6.646;2023-07-08T11:40:28;1.80;;;1.70;;
11506;SDS011;5810;51.180;6.646;2023-07-08T11:42:59;2.78;;;2.05;;
11506;SDS011;5810;51.180;6.646;2023-07-08T11:45:33;1.80;;;1.70;;
11506;SDS011;5810;51.180;6.646;2023-07-08T11:48:12;4.15;;;1.88;;
11506;SDS011;5810;51.180;6.646;2023-07-08T11:50:42;1.98;;;1.88;;
11506;SDS011;5810;51.180;6.646;2023-07-08T11:53:10;6.38;;;2.33;;
11506;SDS011;5810;51.180;6.646;2023-07-08T11:55:38;6.00;;;2.30;;
11506;SDS011;5810;51.180;6.646;2023-07-08T11:58:08;3.60;;;2.35;;
11506;SDS011;5810;51.180;6.646;2023-07-08T12:00:34;6.93;;;2.75;;
11506;SDS011;5810;51.180;6.646;2023-07-08T12:03:18;5.03;;;2.05;;
11506;SDS011;5810;51.180;6.646;2023-07-08T12:05:45;2.85;;;2.53;;
11506;SDS011;5810;51.180;6.646;2023-07-08T12:08:12;2.17;;;1.60;;
11506;SDS011;5810;51.180;6.646;2023-07-08T12:10:40;3.33;;;2.13;;
11506;SDS011;5810;51.180;6.646;2023-07-08T12:13:13;5.30;;;2.28;;
11506;SDS011;5810;51.180;6.646;2023-07-08T12:15:39;2.05;;;1.65;;
11506;SDS011;5810;51.180;6.646;2023-07-08T12:20:35;2.20;;;2.00;;
11506;SDS011;5810;51.180;6.646;2023-07-08T12:23:11;4.85;;;2.05;;
11506;SDS011;5810;51.180;6.646;2023-07-08T12:25:37;2.72;;;2.00;;
11506;SDS011;5810;51.180;6.646;2023-07-08T12:28:03;2.63;;;1.88;;
11506;SDS011;5810;51.180;6.646;2023-07-08T12:30:30;2.58;;;1.98;;
11506;SDS011;5810;51.180;6.646;2023-07-08T12:32:57;5.25;;;2.45;;
11506;SDS011;5810;51.180;6.646;2023-07-08T12:35:27;3.35;;;2.08;;
11506;SDS011;5810;51.180;6.646;2023-07-08T12:37:55;2.90;;;2.42;;
11506;SDS011;5810;51.180;6.646;2023-07-08T12:40:23;2.08;;;1.88;;
11506;SDS011;5810;51.180;6.646;2023-07-08T12:42:49;1.90;;;1.70;;
11506;SDS011;5810;51.180;6.646;2023-07-08T12:45:16;2.95;;;2.40;;
11506;SDS011;5810;51.180;6.646;2023-07-08T12:47:44;3.47;;;2.08;;
11506;SDS011;5810;51.180;6.646;2023-07-08T12:50:11;3.65;;;2.30;;
11506;SDS011;5810;51.180;6.646;2023-07-08T12:52:37;2.85;;;2.55;;
11506;SDS011;5810;51.180;6.646;2023-07-08T12:55:03;2.63;;;2.03;;
11506;SDS011;5810;51.180;6.646;2023-07-08T12:57:30;2.95;;;2.33;;
11506;SDS011;5810;51.180;6.646;2023-07-08T12:59:56;2.33;;;2.13;;
11506;SDS011;5810;51.180;6.646;2023-07-08T13:02:22;2.40;;;2.17;;
11506;SDS011;5810;51.180;6.646;2023-07-08T13:04:52;15.85;;;2.28;;
11506;SDS011;5810;51.180;6.646;2023-07-08T13:07:28;2.60;;;2.38;;
11506;SDS011;5810;51.180;6.646;2023-07-08T13:09:56;2.33;;;2.13;;
11506;SDS011;5810;51.180;6.646;2023-07-08T13:12:22;3.22;;;2.38;;
11506;SDS011;5810;51.180;6.646;2023-07-08T13:14:49;6.05;;;2.35;;
11506;SDS011;5810;51.180;6.646;2023-07-08T13:17:16;2.20;;;2.10;;
11506;SDS011;5810;51.180;6.646;2023-07-08T13:19:43;3.03;;;2.28;;
11506;SDS011;5810;51.180;6.646;2023-07-08T13:22:13;2.15;;;1.95;;
11506;SDS011;5810;51.180;6.646;2023-07-08T13:24:40;2.72;;;2.10;;
11506;SDS011;5810;51.180;6.646;2023-07-08T13:27:07;4.97;;;2.30;;
11506;SDS011;5810;51.180;6.646;2023-07-08T13:29:34;2.88;;;2.45;;
11506;SDS011;5810;51.180;6.646;2023-07-08T13:32:04;3.63;;;2.70;;
11506;SDS011;5810;51.180;6.646;2023-07-08T13:34:32;2.40;;;2.20;;
11506;SDS011;5810;51.180;6.646;2023-07-08T13:36:58;2.67;;;2.47;;
11506;SDS011;5810;51.180;6.646;2023-07-08T13:39:26;2.97;;;2.45;;
11506;SDS011;5810;51.180;6.646;2023-07-08T13:41:53;3.17;;;2.55;;
11506;SDS011;5810;51.180;6.646;2023-07-08T13:44:20;3.03;;;2.30;;
11506;SDS011;5810;51.180;6.646;2023-07-08T13:46:56;2.15;;;1.95;;
11506;SDS011;5810;51.180;6.646;2023-07-08T13:52:04;3.17;;;2.33;;
11506;SDS011;5810;51.180;6.646;2023-07-08T13:54:38;2.20;;;2.00;;
11506;SDS011;5810;51.180;6.646;2023-07-08T13:57:08;4.25;;;2.25;;
11506;SDS011;5810;51.180;6.646;2023-07-08T13:59:35;2.58;;;2.17;;
11506;SDS011;5810;51.180;6.646;2023-07-08T14:02:01;4.43;;;2.30;;
11506;SDS011;5810;51.180;6.646;2023-07-08T14:04:29;2.33;;;2.05;;
11506;SDS011;5810;51.180;6.646;2023-07-08T14:06:55;3.92;;;1.85;;
11506;SDS011;5810;51.180;6.646;2023-07-08T14:09:22;1.88;;;1.77;;
11506;SDS011;5810;51.180;6.646;2023-07-08T14:11:49;2.15;;;1.80;;
11506;SDS011;5810;51.180;6.646;2023-07-08T14:14:15;2.88;;;2.00;;
11506;SDS011;5810;51.180;6.646;2023-07-08T14:16:48;4.28;;;1.95;;
11506;SDS011;5810;51.180;6.646;2023-07-08T14:21:47;4.75;;;1.90;;
11506;SDS011;5810;51.180;6.646;2023-07-08T14:24:14;1.95;;;1.85;;
11506;SDS011;5810;51.180;6.646;2023-07-08T14:26:41;2.33;;;1.88;;
11506;SDS011;5810;51.180;6.646;2023-07-08T14:29:07;2.33;;;2.10;;
11506;SDS011;5810;51.180;6.646;2023-07-08T14:31:33;2.72;;;2.00;;
11506;SDS011;5810;51.180;6.646;2023-07-08T14:34:02;1.90;;;1.80;;
11506;SDS011;5810;51.180;6.646;2023-07-08T14:36:28;5.30;;;2.00;;
11506;SDS011;5810;51.180;6.646;2023-07-08T14:38:54;2.58;;;2.00;;
11506;SDS011;5810;51.180;6.646;2023-07-08T14:41:22;3.47;;;1.98;;
11506;SDS011;5810;51.180;6.646;2023-07-08T14:43:48;3.13;;;2.22;;
11506;SDS011;5810;51.180;6.646;2023-07-08T14:46:14;2.97;;;2.08;;
11506;SDS011;5810;51.180;6.646;2023-07-08T14:48:41;1.95;;;1.85;;
11506;SDS011;5810;51.180;6.646;2023-07-08T14:51:08;2.80;;;2.28;;
11506;SDS011;5810;51.180;6.646;2023-07-08T14:53:34;2.15;;;1.95;;
11506;SDS011;5810;51.180;6.646;2023-07-08T14:56:00;3.30;;;2.20;;
11506;SDS011;5810;51.180;6.646;2023-07-08T14:58:29;2.00;;;1.80;;
11506;SDS011;5810;51.180;6.646;2023-07-08T15:00:57;2.55;;;2.20;;
11506;SDS011;5810;51.180;6.646;2023-07-08T15:03:23;3.05;;;2.28;;
11506;SDS011;5810;51.180;6.646;2023-07-08T15:05:49;2.25;;;2.08;;
11506;SDS011;5810;51.180;6.646;2023-07-08T15:08:15;3.60;;;2.35;;
11506;SDS011;5810;51.180;6.646;2023-07-08T15:10:44;2.67;;;2.15;;
11506;SDS011;5810;51.180;6.646;2023-07-08T15:13:10;2.78;;;2.35;;
11506;SDS011;5810;51.180;6.646;2023-07-08T15:15:37;2.63;;;2.00;;
11506;SDS011;5810;51.180;6.646;2023-07-08T15:18:11;6.65;;;3.05;;
11506;SDS011;5810;51.180;6.646;2023-07-08T15:20:37;2.50;;;2.30;;
11506;SDS011;5810;51.180;6.646;2023-07-08T15:23:04;2.17;;;2.00;;
11506;SDS011;5810;51.180;6.646;2023-07-08T15:25:30;2.33;;;2.13;;
11506;SDS011;5810;51.180;6.646;2023-07-08T15:27:59;2.88;;;2.13;;
11506;SDS011;5810;51.180;6.646;2023-07-08T15:30:25;4.00;;;2.55;;
11506;SDS011;5810;51.180;6.646;2023-07-08T15:32:52;2.97;;;2.40;;
11506;SDS011;5810;51.180;6.646;2023-07-08T15:35:20;1.88;;;1.77;;
11506;SDS011;5810;51.180;6.646;2023-07-08T15:37:46;1.73;;;1.52;;
11506;SDS011;5810;51.180;6.646;2023-07-08T15:40:16;1.95;;;1.65;;
11506;SDS011;5810;51.180;6.646;2023-07-08T15:42:44;5.47;;;1.83;;
11506;SDS011;5810;51.180;6.646;2023-07-08T15:45:14;4.70;;;2.08;;
11506;SDS011;5810;51.180;6.646;2023-07-08T15:47:41;3.10;;;1.67;;
11506;SDS011;5810;51.180;6.646;2023-07-08T15:50:10;2.65;;;1.90;;
11506;SDS011;5810;51.180;6.646;2023-07-08T15:52:37;1.70;;;1.60;;
11506;SDS011;5810;51.180;6.646;2023-07-08T15:55:03;1.98;;;1.77;;
11506;SDS011;5810;51.180;6.646;2023-07-08T15:57:29;1.67;;;1.58;;
11506;SDS011;5810;51.180;6.646;2023-07-08T15:59:55;1.55;;;1.42;;
11506;SDS011;5810;51.180;6.646;2023-07-08T16:02:25;2.17;;;1.83;;